Airfield :
LOGIN :

Register | Disclaimer

   EN    FR    IT 

 










Legend :    VFR   Marginal VFR   IFR   Intensive IFR   Very Intensive IFR
Visi :
Ceiling :
>= 8 km
>= 3000ft
5 to 8 km
1000 to 3000 ft
1500m to 5 km
500 to 1000 ft
800 to 1500m
200 to 500 ft
< 800m
< 200 ft
Symbols :   Thunderstorms  Fog  Heavy snow  Heavy precipitations  Wind > 20 kt
SIGMETs :     Misc.  Thunderstorms  Icing  Turbulence  Mountain Waves  Volcanic Ashes







- Airport Elevation : 392 ft
- IATA code : CDG
- Download approach charts


LFPG - Paris-Aeroport Charles De Gaulle

CURRENT METAR :
  • 211130Z VRB04KT 9999 SCT041 24/13 Q1014 NOSIG

EXPIRED METARs :
  • 211100Z 26005KT 210V310 9999 SCT036 23/13 Q1014 NOSIG
  • 211030Z 32004KT 250V030 9999 SCT035 22/12 Q1014 NOSIG
  • 211000Z VRB05KT 9999 SCT028 22/13 Q1014 NOSIG
  • 210930Z 32004KT 270V360 9999 SCT023 21/14 Q1014 NOSIG
  • 210900Z 31004KT 240V360 9999 SCT020 20/14 Q1014 NOSIG

TAF TAF LFPG
Valid from the 21 at 12:00 until the 22 at 18:00 UTC


211100Z 2112/2218 30005KT 9999 SCT040 TX27/2215Z TN16/2204Z
PROB30
TEMPO 2116/2120 -SHRA FEW040TCU
ATIS : +33 1 48 62 10 92
No reported NOTAMs for that airfield.



MET'MAP, your aeronautical weather chart ! - Copyright ORBIFLY December 2007 - Disclaimer

ORBIFLY MET'MAP TEAM :

Programming & Development : Alexandra Zaïnal
Concept & Development : Baudouin d'Aumeries
Co-Development & Prog : Marc-Olivier Méhu
Technical & hardware support : Manuel Goepfert

Contact : metmap@orbifly.com




SOURCES & CREDITS :

   NOAA